Terminal Aerodrome Forecast
Issued by NWS

Home | Current Version | Previous Version | Text Only | Print | Product List | Glossary On
Versions: 1 2 3 4 5 6 7 8 9 10 11 12 13 14 15 16 17 18 19 20
000
FTUS43 KIND 221700
TAFBMG
TAF
KBMG 221740Z 2218/2318 13008KT P6SM VCSH OVC025
     FM222200 13010KT 4SM -RA OVC009
     FM230200 15011KT 2SM -RA BR SCT004 OVC007
     FM230600 19012G20KT 4SM -RA BR OVC008
     FM231200 21007KT 5SM BR VCSH OVC025
     FM231700 24005KT P6SM OVC040=

USA.gov is the U.S. government's official web portal to all federal, state and local government web resources and services.